Time;durP1;ratioP1;P1;durP2;ratioP2;P2;SDS_P1;SDS_P2;PMS_P1;PMS_P2;Temp;Humidity;BMP_temperature;BMP_pressure;BME280_temperature;BME280_humidity;BME280_pressure;Samples;Min_cycle;Max_cycle;Signal;HPM_P1;HPM_P2
2022/07/13 00:02:15;;;;;;;9.57;4.70;;;;;;;;;;5089261;28;20127;-77
2022/07/13 00:04:41;;;;;;;;;;;;;;;;;;5086789;28;20518;-77
2022/07/13 00:07:07;;;;;;;11.20;4.85;;;;;;;;;;5090110;28;19923;-77
2022/07/13 00:09:33;;;;;;;;;;;;;;;;;;5089336;28;20185;-80
2022/07/13 00:11:59;;;;;;;10.93;4.63;;;;;;;;;;5085850;28;19924;-79
2022/07/13 00:14:25;;;;;;;;;;;;;;;;;;5070468;28;20047;-77
2022/07/13 00:16:51;;;;;;;11.15;5.65;;;;;;;;;;5090273;28;19920;-76
2022/07/13 00:19:17;;;;;;;;;;;;;;;;;;5087250;28;20044;-77
2022/07/13 00:21:43;;;;;;;10.55;5.40;;;;;;;;;;5074233;28;19920;-78
2022/07/13 00:24:09;;;;;;;11.77;5.10;;;;;;;;;;5087734;28;20055;-77
2022/07/13 00:26:35;;;;;;;9.88;5.35;;;;;;;;;;5085798;28;20048;-81
2022/07/13 00:29:01;;;;;;;;;;;;;;;;;;5079959;28;20472;-77
2022/07/13 00:31:27;;;;;;;10.38;5.22;;;;;;;;;;5069973;28;19920;-77
2022/07/13 00:33:53;;;;;;;12.85;6.13;;;;;;;;;;5076871;28;20471;-76
2022/07/13 00:36:19;;;;;;;;;;;;;;;;;;5088074;28;20135;-77
2022/07/13 00:38:45;;;;;;;11.18;6.28;;;;;;;;;;5075297;28;20391;-77
2022/07/13 00:41:11;;;;;;;11.45;5.55;;;;;;;;;;5089951;28;20066;-77
2022/07/13 00:43:37;;;;;;;12.65;5.97;;;;;;;;;;5080801;28;20048;-82
2022/07/13 00:46:03;;;;;;;;;;;;;;;;;;5079910;28;20114;-76
2022/07/13 00:48:30;;;;;;;12.07;6.05;;;;;;;;;;5086166;28;20011;-75
2022/07/13 00:50:56;;;;;;;10.98;6.35;;;;;;;;;;5065967;28;20051;-76
2022/07/13 00:53:24;;;;;;;11.68;6.07;;;;;;;;;;5085272;28;20170;-76
2022/07/13 00:55:50;;;;;;;10.70;6.30;;;;;;;;;;5071824;28;20071;-76
2022/07/13 00:58:16;;;;;;;12.75;6.53;;;;;;;;;;5089949;28;20048;-76
2022/07/13 01:00:42;;;;;;;13.52;6.47;;;;;;;;;;5074233;28;20105;-77
2022/07/13 01:03:08;;;;;;;;;;;;;;;;;;5086538;28;20056;-76
2022/07/13 01:05:34;;;;;;;12.23;6.78;;;;;;;;;;5068694;28;19921;-77
2022/07/13 01:08:03;;;;;;;11.93;7.32;;;;;;;;;;5085235;28;20150;-76
2022/07/13 01:10:29;;;;;;;12.43;6.97;;;;;;;;;;5087996;28;20120;-77
2022/07/13 01:12:55;;;;;;;;;;;;;;;;;;5088908;28;20488;-76
2022/07/13 01:15:22;;;;;;;13.77;7.47;;;;;;;;;;5085934;28;19931;-78
2022/07/13 01:17:48;;;;;;;12.57;6.60;;;;;;;;;;5078441;28;20391;-79
2022/07/13 01:20:17;;;;;;;10.93;6.53;;;;;;;;;;5078990;28;20158;-78
2022/07/13 01:22:45;;;;;;;14.68;6.90;;;;;;;;;;5088027;28;20055;-79
2022/07/13 01:25:11;;;;;;;12.60;7.03;;;;;;;;;;5071998;28;20448;-79
2022/07/13 01:27:39;;;;;;;13.35;6.70;;;;;;;;;;5085656;28;20366;-79
2022/07/13 01:30:06;;;;;;;11.30;6.90;;;;;;;;;;5076758;28;20519;-79
2022/07/13 01:32:44;;;;;;;12.10;7.32;;;;;;;;;;5068249;28;20064;-76
2022/07/13 01:35:10;;;;;;;13.68;7.40;;;;;;;;;;5075427;28;20113;-77
2022/07/13 01:37:36;;;;;;;;;;;;;;;;;;5088034;28;20084;-78
2022/07/13 01:40:02;;;;;;;13.55;8.13;;;;;;;;;;5073367;28;19959;-77
2022/07/13 01:42:28;;;;;;;13.75;7.93;;;;;;;;;;5087850;28;20432;-78
2022/07/13 01:44:55;;;;;;;14.05;7.10;;;;;;;;;;5084490;28;20519;-78
2022/07/13 01:47:21;;;;;;;14.52;7.43;;;;;;;;;;5076159;28;20040;-77
2022/07/13 01:49:47;;;;;;;;;;;;;;;;;;5087498;28;20047;-77
2022/07/13 01:52:13;;;;;;;13.25;7.97;;;;;;;;;;5083617;28;19997;-76
2022/07/13 01:54:39;;;;;;;;;;;;;;;;;;5084892;28;20044;-77
2022/07/13 01:57:05;;;;;;;14.18;7.90;;;;;;;;;;5067981;28;20341;-77
2022/07/13 01:59:31;;;;;;;;;;;;;;;;;;5069688;28;20044;-77
2022/07/13 02:01:58;;;;;;;14.52;8.35;;;;;;;;;;5085048;28;20328;-74
2022/07/13 02:04:24;;;;;;;;;;;;;;;;;;5082316;28;20104;-77
2022/07/13 02:06:50;;;;;;;15.45;8.15;;;;;;;;;;5086156;28;19936;-77
2022/07/13 02:09:16;;;;;;;15.52;7.95;;;;;;;;;;5087919;28;20070;-77
2022/07/13 02:11:42;;;;;;;;;;;;;;;;;;5088461;28;20040;-76
2022/07/13 02:14:08;;;;;;;15.18;8.55;;;;;;;;;;5086404;28;20193;-77
2022/07/13 02:16:34;;;;;;;13.07;8.45;;;;;;;;;;5071937;28;20048;-76
2022/07/13 02:19:00;;;;;;;18.35;9.20;;;;;;;;;;5075248;28;20086;-77
2022/07/13 02:21:26;;;;;;;14.63;8.52;;;;;;;;;;5087838;28;20040;-77
2022/07/13 02:23:52;;;;;;;;;;;;;;;;;;5088676;28;20067;-77
2022/07/13 02:26:18;;;;;;;13.95;9.23;;;;;;;;;;5074635;28;19939;-81
2022/07/13 02:28:44;;;;;;;14.70;8.70;;;;;;;;;;5086831;28;20044;-79
2022/07/13 02:31:10;;;;;;;;;;;;;;;;;;5067873;28;20477;-80
2022/07/13 02:33:37;;;;;;;15.75;9.23;;;;;;;;;;5085136;28;19931;-78
2022/07/13 02:36:03;;;;;;;14.82;9.02;;;;;;;;;;5081048;28;20063;-79
2022/07/13 02:38:29;;;;;;;;;;;;;;;;;;5094630;28;20157;-80
2022/07/13 02:40:55;;;;;;;14.98;8.50;;;;;;;;;;5080863;28;20345;-79
2022/07/13 02:43:22;;;;;;;13.75;8.25;;;;;;;;;;5069185;28;20036;-80
2022/07/13 02:45:47;;;;;;;;;;;;;;;;;;5074404;28;20052;-79
2022/07/13 02:48:13;;;;;;;16.13;9.20;;;;;;;;;;5089093;28;20004;-78
2022/07/13 02:50:40;;;;;;;13.98;8.20;;;;;;;;;;5082701;28;20537;-79
2022/07/13 02:53:06;;;;;;;;;;;;;;;;;;5089075;28;20483;-79
2022/07/13 02:55:32;;;;;;;13.73;8.60;;;;;;;;;;5091641;28;19936;-78
2022/07/13 02:58:00;;;;;;;;;;;;;;;;;;5087919;28;20041;-79
2022/07/13 03:00:26;;;;;;;13.77;9.00;;;;;;;;;;5077141;28;19928;-79
2022/07/13 03:02:52;;;;;;;14.80;9.27;;;;;;;;;;5080473;28;20051;-79
2022/07/13 03:05:18;;;;;;;;;;;;;;;;;;5090484;28;20087;-78
2022/07/13 03:07:44;;;;;;;15.18;8.90;;;;;;;;;;5073072;28;20354;-79
2022/07/13 03:10:10;;;;;;;;;;;;;;;;;;5092241;28;20502;-78
2022/07/13 03:12:36;;;;;;;13.93;8.55;;;;;;;;;;5076180;28;19928;-76
2022/07/13 03:15:02;;;;;;;;;;;;;;;;;;5072593;28;20045;-77
2022/07/13 03:17:28;;;;;;;14.18;9.02;;;;;;;;;;5073649;28;19932;-76
2022/07/13 03:19:54;;;;;;;16.08;9.13;;;;;;;;;;5082886;28;20048;-76
2022/07/13 03:22:20;;;;;;;15.05;8.77;;;;;;;;;;5090482;28;20072;-77
2022/07/13 03:24:46;;;;;;;;;;;;;;;;;;5094175;28;20397;-77
2022/07/13 03:27:12;;;;;;;15.05;8.48;;;;;;;;;;5087504;28;19993;-76
2022/07/13 03:29:38;;;;;;;;;;;;;;;;;;5093458;28;20163;-77
2022/07/13 03:32:05;;;;;;;12.85;7.75;;;;;;;;;;5081349;28;20025;-76
2022/07/13 03:34:31;;;;;;;15.40;8.07;;;;;;;;;;5073418;28;20051;-76
2022/07/13 03:36:57;;;;;;;;;;;;;;;;;;5073543;28;20507;-76
2022/07/13 03:39:23;;;;;;;15.65;8.93;;;;;;;;;;5077363;28;19920;-77
2022/07/13 03:41:49;;;;;;;13.95;7.80;;;;;;;;;;5092129;28;20068;-76
2022/07/13 03:44:15;;;;;;;14.57;8.40;;;;;;;;;;5092940;28;20102;-77
2022/07/13 03:46:41;;;;;;;13.45;9.18;;;;;;;;;;5086012;28;20072;-76
2022/07/13 03:49:07;;;;;;;;;;;;;;;;;;5075490;28;20044;-76
2022/07/13 03:51:33;;;;;;;14.23;9.02;;;;;;;;;;5092586;28;19920;-76
2022/07/13 03:53:59;;;;;;;;;;;;;;;;;;5080350;28;20044;-77
2022/07/13 03:56:25;;;;;;;15.70;8.40;;;;;;;;;;5071897;28;20393;-76
2022/07/13 03:58:51;;;;;;;13.15;8.38;;;;;;;;;;5073215;28;20041;-76
2022/07/13 04:01:19;;;;;;;12.07;7.65;;;;;;;;;;5077242;28;20040;-76
2022/07/13 04:03:45;;;;;;;12.93;8.48;;;;;;;;;;5090818;28;20442;-76
2022/07/13 04:06:11;;;;;;;;;;;;;;;;;;5092231;28;20059;-76
2022/07/13 04:08:37;;;;;;;13.57;7.82;;;;;;;;;;5074280;28;20000;-76
2022/07/13 04:11:03;;;;;;;14.57;8.60;;;;;;;;;;5090395;28;20146;-79
2022/07/13 04:13:29;;;;;;;13.25;8.30;;;;;;;;;;5092128;28;20044;-76
2022/07/13 04:15:55;;;;;;;;;;;;;;;;;;5083555;28;20127;-77
2022/07/13 04:18:21;;;;;;;14.55;8.68;;;;;;;;;;5083787;28;19995;-76
2022/07/13 04:20:47;;;;;;;14.40;8.35;;;;;;;;;;5091058;28;20442;-75
2022/07/13 04:23:13;;;;;;;14.38;8.60;;;;;;;;;;5086849;28;20090;-76
2022/07/13 04:25:39;;;;;;;12.52;7.93;;;;;;;;;;5092366;28;20048;-76
2022/07/13 04:28:05;;;;;;;14.50;8.15;;;;;;;;;;5086204;28;20075;-79
2022/07/13 04:30:31;;;;;;;13.93;8.15;;;;;;;;;;5086384;28;20051;-75
2022/07/13 04:32:57;;;;;;;12.82;7.97;;;;;;;;;;5089585;28;20051;-75
2022/07/13 04:35:23;;;;;;;;;;;;;;;;;;5086954;28;20099;-76
2022/07/13 04:37:49;;;;;;;13.52;8.02;;;;;;;;;;5081100;28;19963;-79
2022/07/13 04:40:16;;;;;;;16.83;8.32;;;;;;;;;;5073441;28;20482;-76
2022/07/13 04:42:42;;;;;;;13.52;7.97;;;;;;;;;;5076094;28;20055;-76
2022/07/13 04:45:08;;;;;;;;;;;;;;;;;;5092062;28;20044;-78
2022/07/13 04:47:34;;;;;;;15.48;8.10;;;;;;;;;;5086937;28;20010;-76
2022/07/13 04:50:00;;;;;;;17.83;8.50;;;;;;;;;;5085961;28;20120;-75
2022/07/13 04:52:26;;;;;;;;;;;;;;;;;;5087202;28;20131;-76
2022/07/13 04:54:52;;;;;;;11.55;7.30;;;;;;;;;;5073768;28;20015;-76
2022/07/13 04:57:18;;;;;;;13.50;7.78;;;;;;;;;;5083581;28;20503;-77
2022/07/13 04:59:44;;;;;;;13.10;7.78;;;;;;;;;;5085611;28;20051;-76
2022/07/13 05:02:10;;;;;;;;;;;;;;;;;;5086687;28;20159;-78
2022/07/13 05:04:36;;;;;;;18.13;8.60;;;;;;;;;;5086871;28;20034;-82
2022/07/13 05:07:02;;;;;;;14.07;8.95;;;;;;;;;;5085497;28;20107;-82
2022/07/13 05:09:28;;;;;;;13.38;8.48;;;;;;;;;;5081585;28;20045;-83
2022/07/13 05:11:54;;;;;;;14.00;8.75;;;;;;;;;;5073400;28;20396;-82
2022/07/13 05:14:20;;;;;;;;;;;;;;;;;;5085804;28;20121;-86
2022/07/13 05:16:46;;;;;;;16.02;9.20;;;;;;;;;;5087144;28;20351;-83
2022/07/13 05:19:12;;;;;;;;;;;;;;;;;;5072355;28;20127;-85
2022/07/13 05:21:38;;;;;;;20.30;9.85;;;;;;;;;;5088309;28;20011;-84
2022/07/13 05:24:04;;;;;;;;;;;;;;;;;;5078921;28;20480;-85
2022/07/13 05:26:30;;;;;;;17.15;9.70;;;;;;;;;;5073181;28;19934;-86
2022/07/13 05:28:56;;;;;;;;;;;;;;;;;;5087389;28;20338;-85
2022/07/13 05:31:23;;;;;;;17.00;10.05;;;;;;;;;;5083032;28;20260;-80
2022/07/13 05:33:49;;;;;;;16.75;9.98;;;;;;;;;;5089785;28;20461;-73
2022/07/13 05:36:15;;;;;;;;;;;;;;;;;;5083077;28;20460;-75
2022/07/13 05:38:41;;;;;;;19.50;10.73;;;;;;;;;;5080302;28;20039;-73
2022/07/13 05:41:07;;;;;;;;;;;;;;;;;;5077109;28;20040;-73
2022/07/13 05:43:33;;;;;;;17.08;10.82;;;;;;;;;;5081582;28;19943;-72
2022/07/13 05:45:59;;;;;;;;;;;;;;;;;;5079088;28;20454;-73
2022/07/13 05:48:25;;;;;;;16.42;11.20;;;;;;;;;;5087537;28;19931;-71
2022/07/13 05:50:51;;;;;;;;;;;;;;;;;;5088185;28;20393;-71
2022/07/13 05:53:19;;;;;;;17.92;11.13;;;;;;;;;;5087521;28;19920;-76
2022/07/13 05:55:45;;;;;;;16.40;11.48;;;;;;;;;;5088190;28;20052;-72
2022/07/13 05:58:11;;;;;;;19.42;10.70;;;;;;;;;;5086049;28;20143;-73
2022/07/13 06:00:37;;;;;;;;;;;;;;;;;;5087406;28;20119;-72
2022/07/13 06:03:03;;;;;;;24.52;12.55;;;;;;;;;;5070448;28;20022;-73
2022/07/13 06:05:29;;;;;;;;;;;;;;;;;;5078957;28;20410;-73
2022/07/13 06:07:55;;;;;;;18.48;11.93;;;;;;;;;;5072437;28;20018;-73
2022/07/13 06:10:22;;;;;;;18.08;11.70;;;;;;;;;;5086809;28;20391;-72
2022/07/13 06:12:48;;;;;;;23.98;11.80;;;;;;;;;;5087208;28;20099;-72
2022/07/13 06:15:14;;;;;;;;;;;;;;;;;;5087464;28;20333;-72
2022/07/13 06:17:40;;;;;;;24.05;12.68;;;;;;;;;;5085651;28;19916;-71
2022/07/13 06:20:06;;;;;;;23.05;12.85;;;;;;;;;;5086494;28;20131;-73
2022/07/13 06:22:33;;;;;;;22.52;13.13;;;;;;;;;;5083480;28;20036;-72
2022/07/13 06:24:59;;;;;;;22.23;12.82;;;;;;;;;;5085874;28;20125;-73
2022/07/13 06:27:25;;;;;;;;;;;;;;;;;;5084708;28;20082;-71
2022/07/13 06:29:51;;;;;;;22.02;12.85;;;;;;;;;;5087183;28;20349;-72
2022/07/13 06:32:17;;;;;;;;;;;;;;;;;;5088620;28;20185;-72
2022/07/13 06:34:43;;;;;;;20.77;12.27;;;;;;;;;;5087703;28;19939;-72
2022/07/13 06:37:09;;;;;;;21.42;13.63;;;;;;;;;;5089890;28;20405;-72
2022/07/13 06:39:35;;;;;;;;;;;;;;;;;;5090658;28;20059;-73
2022/07/13 06:42:01;;;;;;;21.40;13.15;;;;;;;;;;5079417;28;19957;-72
2022/07/13 06:44:27;;;;;;;19.38;12.90;;;;;;;;;;5082388;28;20397;-72
2022/07/13 06:46:53;;;;;;;;;;;;;;;;;;5091908;28;20436;-72
2022/07/13 06:49:19;;;;;;;26.20;13.48;;;;;;;;;;5072930;28;19967;-72
2022/07/13 06:51:45;;;;;;;;;;;;;;;;;;5084417;28;20343;-69
2022/07/13 06:54:11;;;;;;;22.40;12.70;;;;;;;;;;5079064;28;20013;-72
2022/07/13 06:56:37;;;;;;;;;;;;;;;;;;5079591;28;20231;-71
2022/07/13 06:59:03;;;;;;;21.10;12.55;;;;;;;;;;5077241;28;20079;-69
2022/07/13 07:01:29;;;;;;;;;;;;;;;;;;5088454;28;20036;-70
2022/07/13 07:03:55;;;;;;;21.42;12.82;;;;;;;;;;5082759;28;19922;-70
2022/07/13 07:06:21;;;;;;;25.77;14.13;;;;;;;;;;5069727;28;20468;-70
2022/07/13 07:08:47;;;;;;;21.98;12.63;;;;;;;;;;5080952;28;20322;-70
2022/07/13 07:11:13;;;;;;;;;;;;;;;;;;5088253;28;20055;-76
2022/07/13 07:13:39;;;;;;;20.88;12.80;;;;;;;;;;5070486;28;19996;-70
2022/07/13 07:16:05;;;;;;;23.77;12.70;;;;;;;;;;5070263;28;20367;-69
2022/07/13 07:18:31;;;;;;;20.25;12.15;;;;;;;;;;5068031;28;20248;-70
2022/07/13 07:21:00;;;;;;;;;;;;;;;;;;5068562;28;20112;-69
2022/07/13 07:23:26;;;;;;;20.92;11.90;;;;;;;;;;5069219;28;19920;-74
2022/07/13 07:25:52;;;;;;;;;;;;;;;;;;5069898;28;20036;-71
2022/07/13 07:28:18;;;;;;;21.42;11.30;;;;;;;;;;5070213;28;19939;-70
2022/07/13 07:30:44;;;;;;;;;;;;;;;;;;5069672;28;20452;-68
2022/07/13 07:33:10;;;;;;;22.48;13.52;;;;;;;;;;5069682;28;19916;-68
2022/07/13 07:35:36;;;;;;;21.17;13.30;;;;;;;;;;5069292;28;20400;-69
2022/07/13 07:38:02;;;;;;;;;;;;;;;;;;5082774;28;20383;-70
2022/07/13 07:40:28;;;;;;;24.77;13.15;;;;;;;;;;5086655;28;20030;-75
2022/07/13 07:42:54;;;;;;;;;;;;;;;;;;5089630;28;20036;-72
2022/07/13 07:45:20;;;;;;;24.08;12.85;;;;;;;;;;5089727;28;19993;-67
2022/07/13 07:47:46;;;;;;;;;;;;;;;;;;5088844;28;20053;-69
2022/07/13 07:50:12;;;;;;;20.85;13.85;;;;;;;;;;5088564;28;19955;-70
2022/07/13 07:52:38;;;;;;;;;;;;;;;;;;5089571;28;20154;-71
2022/07/13 07:55:05;;;;;;;22.33;13.88;;;;;;;;;;5089853;28;19976;-67
2022/07/13 07:57:31;;;;;;;24.85;13.00;;;;;;;;;;5089431;28;20072;-70
2022/07/13 07:59:57;;;;;;;25.70;15.38;;;;;;;;;;5084040;28;20122;-69
2022/07/13 08:02:23;;;;;;;27.02;15.48;;;;;;;;;;5089477;28;20082;-69
2022/07/13 08:04:49;;;;;;;;;;;;;;;;;;5088154;28;20127;-71
2022/07/13 08:07:16;;;;;;;22.77;13.77;;;;;;;;;;5089002;28;20038;-70
2022/07/13 08:09:41;;;;;;;;;;;;;;;;;;5089101;28;20443;-70
2022/07/13 08:12:08;;;;;;;21.90;12.00;;;;;;;;;;5088843;28;19942;-70
2022/07/13 08:14:34;;;;;;;23.65;13.07;;;;;;;;;;5088791;28;20101;-71
2022/07/13 08:17:00;;;;;;;21.27;13.05;;;;;;;;;;5090356;28;20117;-70
2022/07/13 08:19:26;;;;;;;23.20;13.73;;;;;;;;;;5075204;28;20090;-71
2022/07/13 08:21:52;;;;;;;20.33;12.50;;;;;;;;;;5068587;28;20519;-69
2022/07/13 08:24:18;;;;;;;20.25;12.23;;;;;;;;;;5068750;28;20051;-72
2022/07/13 08:26:44;;;;;;;19.75;9.57;;;;;;;;;;5066816;28;20045;-71
2022/07/13 08:29:13;;;;;;;20.00;9.88;;;;;;;;;;5068494;28;20448;-72
2022/07/13 08:31:39;;;;;;;20.35;10.35;;;;;;;;;;5068335;28;20103;-72
2022/07/13 08:39:35;;;;;;;19.70;11.02;;;;;;;;;;5068415;28;20088;-76
2022/07/13 08:42:01;;;;;;;22.05;10.52;;;;;;;;;;5068230;28;20040;-70
2022/07/13 08:44:27;;;;;;;18.63;9.75;;;;;;;;;;5072731;28;20111;-72
2022/07/13 08:46:53;;;;;;;17.23;9.95;;;;;;;;;;5087861;28;20040;-73
2022/07/13 08:49:21;;;;;;;17.35;8.57;;;;;;;;;;5088201;28;20117;-72
2022/07/13 08:51:47;;;;;;;20.70;9.77;;;;;;;;;;5087963;28;20036;-71
2022/07/13 08:54:13;;;;;;;17.20;9.05;;;;;;;;;;5086658;28;20126;-70
2022/07/13 08:56:41;;;;;;;19.50;10.73;;;;;;;;;;5082484;28;20073;-72
2022/07/13 08:59:07;;;;;;;23.60;9.60;;;;;;;;;;5087966;28;20084;-71
2022/07/13 09:01:33;;;;;;;15.02;6.80;;;;;;;;;;5087432;28;20078;-72
2022/07/13 09:04:00;;;;;;;12.73;6.13;;;;;;;;;;5087426;28;20075;-67
2022/07/13 09:06:38;;;;;;;15.02;7.65;;;;;;;;;;5078230;28;20093;-70
2022/07/13 09:09:05;;;;;;;14.27;6.32;;;;;;;;;;5067189;28;20198;-71
2022/07/13 09:11:31;;;;;;;13.82;6.82;;;;;;;;;;5083221;28;20098;-68
2022/07/13 09:13:57;;;;;;;14.05;6.15;;;;;;;;;;5066826;28;20041;-70
2022/07/13 09:16:24;;;;;;;18.08;6.68;;;;;;;;;;5067402;28;20071;-67
2022/07/13 09:18:57;;;;;;;14.13;5.72;;;;;;;;;;5066357;28;20041;-71
2022/07/13 09:21:24;;;;;;;11.93;5.85;;;;;;;;;;5067333;28;20066;-67
2022/07/13 09:23:57;;;;;;;12.20;5.63;;;;;;;;;;5066920;28;20067;-67
2022/07/13 09:26:24;;;;;;;15.05;6.53;;;;;;;;;;5066983;28;20525;-70
2022/07/13 09:28:51;;;;;;;13.65;5.72;;;;;;;;;;5065730;28;20064;-67
2022/07/13 09:31:18;;;;;;;15.27;6.20;;;;;;;;;;5067131;28;20063;-69
2022/07/13 09:33:45;;;;;;;10.32;4.55;;;;;;;;;;5065922;28;20433;-68
2022/07/13 09:36:13;;;;;;;13.10;5.38;;;;;;;;;;5067365;28;20080;-67
2022/07/13 09:38:41;;;;;;;13.55;5.47;;;;;;;;;;5067232;28;20078;-70
2022/07/13 09:41:24;;;;;;;15.93;6.25;;;;;;;;;;5066734;28;20041;-70
2022/07/13 09:46:50;;;;;;;14.10;6.10;;;;;;;;;;5067347;28;20055;-68
2022/07/13 09:49:20;;;;;;;12.82;6.85;;;;;;;;;;5066919;28;20530;-66
2022/07/13 09:51:46;;;;;;;14.50;5.70;;;;;;;;;;5065925;28;20500;-71
2022/07/13 09:54:13;;;;;;;14.82;5.50;;;;;;;;;;5066962;28;20432;-69
2022/07/13 09:56:49;;;;;;;12.02;6.30;;;;;;;;;;5082107;28;20040;-71
2022/07/13 09:59:15;;;;;;;;;;;;;;;;;;5085777;28;20131;-66
2022/07/13 10:01:41;;;;;;;14.07;5.38;;;;;;;;;;5085019;28;19932;-67
2022/07/13 10:04:08;;;;;;;12.10;5.40;;;;;;;;;;5081702;28;20044;-67
2022/07/13 10:06:34;;;;;;;16.33;5.55;;;;;;;;;;5085870;28;20076;-67
2022/07/13 10:09:01;;;;;;;14.90;6.03;;;;;;;;;;5086284;28;20469;-68
2022/07/13 10:11:27;;;;;;;11.07;5.57;;;;;;;;;;5087363;28;20082;-66
2022/07/13 10:13:54;;;;;;;16.02;5.88;;;;;;;;;;5083405;28;20044;-71
2022/07/13 10:16:20;;;;;;;11.02;5.50;;;;;;;;;;5067250;28;20127;-71
2022/07/13 10:18:47;;;;;;;16.02;4.63;;;;;;;;;;5077645;28;20478;-72
2022/07/13 10:21:13;;;;;;;14.85;4.90;;;;;;;;;;5083799;28;20461;-68
2022/07/13 10:23:40;;;;;;;11.07;4.40;;;;;;;;;;5067432;28;20086;-66
2022/07/13 10:26:39;;;;;;;10.60;3.95;;;;;;;;;;5075912;28;20049;-69
2022/07/13 10:29:09;;;;;;;11.82;3.92;;;;;;;;;;5072850;28;20151;-67
2022/07/13 10:31:36;;;;;;;13.38;3.65;;;;;;;;;;5080925;28;20048;-67
2022/07/13 10:34:03;;;;;;;9.90;3.88;;;;;;;;;;5076913;28;20063;-67
2022/07/13 10:36:56;;;;;;;11.07;3.95;;;;;;;;;;5073551;28;20116;-67
2022/07/13 10:39:26;;;;;;;9.75;3.80;;;;;;;;;;5080514;28;20060;-72
2022/07/13 10:42:10;;;;;;;10.50;3.55;;;;;;;;;;5079895;28;20032;-70
2022/07/13 10:44:39;;;;;;;9.07;3.38;;;;;;;;;;5080446;28;20043;-69
2022/07/13 10:47:06;;;;;;;9.45;3.03;;;;;;;;;;5080853;28;20543;-67
2022/07/13 10:49:32;;;;;;;9.50;2.92;;;;;;;;;;5084495;28;20044;-68
2022/07/13 10:52:17;;;;;;;9.20;3.55;;;;;;;;;;5081476;28;20447;-68
2022/07/13 10:55:09;;;;;;;12.07;4.00;;;;;;;;;;5083189;28;20040;-68
2022/07/13 10:57:36;;;;;;;10.98;4.35;;;;;;;;;;5082612;28;20134;-67
2022/07/13 11:03:06;;;;;;;11.07;3.53;;;;;;;;;;5074685;28;20044;-69
2022/07/13 11:05:36;;;;;;;9.95;3.40;;;;;;;;;;5082205;28;20117;-71
2022/07/13 11:08:15;;;;;;;9.57;3.80;;;;;;;;;;5076918;28;20060;-69
2022/07/13 11:10:42;;;;;;;9.18;2.95;;;;;;;;;;5071044;28;20060;-67
2022/07/13 11:13:09;;;;;;;10.23;3.38;;;;;;;;;;5065052;28;20163;-67
2022/07/13 11:15:42;;;;;;;10.48;3.55;;;;;;;;;;5071503;28;20056;-70
2022/07/13 11:18:24;;;;;;;8.10;3.42;;;;;;;;;;5075487;28;20538;-69
2022/07/13 11:21:05;;;;;;;10.38;3.47;;;;;;;;;;5085730;28;20088;-72
2022/07/13 11:26:23;;;;;;;9.48;3.45;;;;;;;;;;5083463;28;20546;-67
2022/07/13 11:29:08;;;;;;;10.52;3.55;;;;;;;;;;5088942;28;20380;-67
2022/07/13 11:31:34;;;;;;;11.10;3.60;;;;;;;;;;5086999;28;20051;-67
2022/07/13 11:34:01;;;;;;;9.00;3.92;;;;;;;;;;5087668;28;20055;-68
2022/07/13 11:36:27;;;;;;;10.32;3.80;;;;;;;;;;5089160;28;20044;-68
2022/07/13 11:38:53;;;;;;;10.38;3.70;;;;;;;;;;5089000;28;20459;-67
2022/07/13 11:41:21;;;;;;;11.90;3.80;;;;;;;;;;5088600;28;20067;-67
2022/07/13 11:43:50;;;;;;;11.25;3.97;;;;;;;;;;5087467;28;20126;-70
2022/07/13 11:46:23;;;;;;;12.13;4.25;;;;;;;;;;5067861;28;20863;-68
2022/07/13 11:48:57;;;;;;;9.32;3.85;;;;;;;;;;5071363;28;20498;-67
2022/07/13 11:51:23;;;;;;;11.15;4.00;;;;;;;;;;5079334;28;20122;-68
2022/07/13 11:53:49;;;;;;;9.18;3.63;;;;;;;;;;5088566;28;20063;-68
2022/07/13 11:56:15;;;;;;;11.20;4.57;;;;;;;;;;5085022;28;20040;-67
2022/07/13 11:58:45;;;;;;;10.30;4.70;;;;;;;;;;5088224;28;20360;-66
2022/07/13 12:01:15;;;;;;;11.02;4.13;;;;;;;;;;5079985;28;20078;-67
2022/07/13 12:03:46;;;;;;;10.85;4.18;;;;;;;;;;5088145;28;20143;-67
2022/07/13 12:06:12;;;;;;;10.27;4.35;;;;;;;;;;5081206;28;20052;-67
2022/07/13 12:08:39;;;;;;;12.38;4.30;;;;;;;;;;5073490;28;20067;-67
2022/07/13 12:11:06;;;;;;;10.95;4.22;;;;;;;;;;5070675;28;20345;-67
2022/07/13 12:13:36;;;;;;;11.85;4.22;;;;;;;;;;5070573;28;20383;-69
2022/07/13 12:16:03;;;;;;;11.85;3.63;;;;;;;;;;5075791;28;20051;-69
2022/07/13 12:18:29;;;;;;;12.02;4.60;;;;;;;;;;5080864;28;20067;-66
2022/07/13 12:20:56;;;;;;;13.68;5.28;;;;;;;;;;5078281;28;20040;-66
2022/07/13 12:23:23;;;;;;;12.80;4.60;;;;;;;;;;5084504;28;20084;-67
2022/07/13 12:26:03;;;;;;;11.15;4.40;;;;;;;;;;5084915;28;20378;-71
2022/07/13 12:28:30;;;;;;;11.30;4.90;;;;;;;;;;5087298;28;20048;-69
2022/07/13 12:30:57;;;;;;;11.38;4.18;;;;;;;;;;5086121;28;20482;-68
2022/07/13 12:33:24;;;;;;;14.75;4.65;;;;;;;;;;5086506;28;20054;-69
2022/07/13 12:36:00;;;;;;;13.20;4.90;;;;;;;;;;5066093;28;20036;-70
2022/07/13 12:38:26;;;;;;;14.52;4.63;;;;;;;;;;5065585;28;20480;-70
2022/07/13 12:40:54;;;;;;;12.88;4.30;;;;;;;;;;5073565;28;20060;-69
2022/07/13 12:43:30;;;;;;;12.95;5.15;;;;;;;;;;5068525;28;20051;-68
2022/07/13 12:45:58;;;;;;;14.63;5.40;;;;;;;;;;5071763;28;20147;-67
2022/07/13 12:48:25;;;;;;;13.02;4.85;;;;;;;;;;5074039;28;20079;-69
2022/07/13 12:50:58;;;;;;;12.85;4.75;;;;;;;;;;5065357;28;20441;-70
2022/07/13 12:53:24;;;;;;;11.48;4.10;;;;;;;;;;5074833;28;20101;-67
2022/07/13 12:55:53;;;;;;;13.25;4.57;;;;;;;;;;5077240;28;20050;-69
2022/07/13 12:58:19;;;;;;;12.50;4.50;;;;;;;;;;5076884;28;20040;-72
2022/07/13 13:00:45;;;;;;;13.52;4.68;;;;;;;;;;5069060;28;20072;-67
2022/07/13 13:03:12;;;;;;;10.40;4.20;;;;;;;;;;5065712;28;20060;-69
2022/07/13 13:05:38;;;;;;;11.63;4.45;;;;;;;;;;5073680;28;20055;-69
2022/07/13 13:08:04;;;;;;;13.50;4.57;;;;;;;;;;5082853;28;20134;-69
2022/07/13 13:10:31;;;;;;;14.55;5.15;;;;;;;;;;5077687;28;20365;-70
2022/07/13 13:12:57;;;;;;;12.07;3.90;;;;;;;;;;5078884;28;20138;-70
2022/07/13 13:15:23;;;;;;;12.73;4.07;;;;;;;;;;5081042;28;20032;-69
2022/07/13 13:17:50;;;;;;;12.25;4.50;;;;;;;;;;5079968;28;20050;-68
2022/07/13 13:20:16;;;;;;;11.50;3.88;;;;;;;;;;5078118;28;21071;-70
2022/07/13 13:22:42;;;;;;;12.65;4.25;;;;;;;;;;5074848;28;20506;-74
2022/07/13 13:25:09;;;;;;;13.52;4.15;;;;;;;;;;5084085;28;20106;-72
2022/07/13 13:27:35;;;;;;;12.98;4.65;;;;;;;;;;5066426;28;20048;-73
2022/07/13 13:32:46;;;;;;;14.43;4.40;;;;;;;;;;5065976;28;20056;-75
2022/07/13 13:35:12;;;;;;;20.40;4.15;;;;;;;;;;5072171;28;20162;-81
2022/07/13 13:37:38;;;;;;;14.82;4.70;;;;;;;;;;5070941;28;20072;-75
2022/07/13 13:40:05;;;;;;;10.15;3.70;;;;;;;;;;5069273;28;20131;-73
2022/07/13 13:42:31;;;;;;;10.45;3.60;;;;;;;;;;5073924;28;20672;-76
2022/07/13 13:44:57;;;;;;;11.68;3.90;;;;;;;;;;5069296;28;20091;-69
2022/07/13 13:47:23;;;;;;;11.35;3.53;;;;;;;;;;5072173;28;20036;-71
2022/07/13 13:49:49;;;;;;;15.48;3.65;;;;;;;;;;5083917;28;20107;-71
2022/07/13 13:52:16;;;;;;;11.05;3.10;;;;;;;;;;5065340;28;20053;-68
2022/07/13 13:54:42;;;;;;;14.70;3.42;;;;;;;;;;5076941;28;20066;-71
2022/07/13 13:57:09;;;;;;;11.38;3.63;;;;;;;;;;5083374;28;20071;-70
2022/07/13 13:59:35;;;;;;;15.60;4.20;;;;;;;;;;5080850;28;20831;-72
2022/07/13 14:02:01;;;;;;;11.07;3.63;;;;;;;;;;5080388;28;20059;-68
2022/07/13 14:04:29;;;;;;;9.70;3.40;;;;;;;;;;5071182;28;20092;-71
2022/07/13 14:06:55;;;;;;;11.43;3.30;;;;;;;;;;5070357;28;20506;-73
2022/07/13 14:09:21;;;;;;;13.40;3.47;;;;;;;;;;5080434;28;20037;-73
2022/07/13 14:11:47;;;;;;;13.55;3.55;;;;;;;;;;5066377;28;20060;-74
2022/07/13 14:14:13;;;;;;;13.57;3.58;;;;;;;;;;5070090;28;20040;-69
2022/07/13 14:16:39;;;;;;;10.15;3.20;;;;;;;;;;5074175;28;20036;-71
2022/07/13 14:19:05;;;;;;;10.90;3.10;;;;;;;;;;5075216;28;20522;-70
2022/07/13 14:21:31;;;;;;;10.48;3.28;;;;;;;;;;5071042;28;20120;-72
2022/07/13 14:23:58;;;;;;;14.65;3.70;;;;;;;;;;5071440;28;20056;-72
2022/07/13 14:26:24;;;;;;;14.90;3.60;;;;;;;;;;5071517;28;20044;-71
2022/07/13 14:28:50;;;;;;;15.18;3.58;;;;;;;;;;5074554;28;20400;-68
2022/07/13 14:31:16;;;;;;;15.75;3.58;;;;;;;;;;5066610;28;20052;-74
2022/07/13 14:33:42;;;;;;;;;;;;;;;;;;5068959;28;20117;-69
2022/07/13 14:36:08;;;;;;;14.48;3.38;;;;;;;;;;5083296;28;19920;-68
2022/07/13 14:38:34;;;;;;;14.43;3.35;;;;;;;;;;5068496;28;20093;-77
2022/07/13 14:41:01;;;;;;;17.95;3.70;;;;;;;;;;5082421;28;20055;-69
2022/07/13 14:43:27;;;;;;;15.27;3.63;;;;;;;;;;5076316;28;20051;-67
2022/07/13 14:45:53;;;;;;;14.45;3.30;;;;;;;;;;5085550;28;20119;-71
2022/07/13 14:48:19;;;;;;;16.50;3.97;;;;;;;;;;5071484;28;20116;-79
2022/07/13 14:50:45;;;;;;;14.63;3.40;;;;;;;;;;5075487;28;20060;-66
2022/07/13 14:53:11;;;;;;;16.80;3.85;;;;;;;;;;5072424;28;20115;-69
2022/07/13 14:55:37;;;;;;;13.40;3.47;;;;;;;;;;5072099;28;20199;-71
2022/07/13 14:58:03;;;;;;;16.83;3.80;;;;;;;;;;5079169;28;20055;-68
2022/07/13 15:00:29;;;;;;;18.92;4.43;;;;;;;;;;5075583;28;20039;-75
2022/07/13 15:02:56;;;;;;;17.25;3.78;;;;;;;;;;5072945;28;20060;-75
2022/07/13 15:05:23;;;;;;;19.02;3.67;;;;;;;;;;5078537;28;20048;-74
2022/07/13 15:07:49;;;;;;;20.30;4.53;;;;;;;;;;5070585;28;20041;-77